Monday, November 24, 2014, 9:35 AM EST

KMDT, Harrisburg International Airport

Location: Middletown, PA, United States Lat: 40.2
Local Time: 9:35 AM EST (14:35 GMT) Lon: -76.767
Time Zone: US/Eastern Elev: 308 ft

Show me the last for .
Show Decoded

2014-11-24 09:03 METAR KMDT 241403Z 21014G22KT 10SM BKN026 18/13 A2962 RMK AO2 T01780133 =
2014-11-24 08:56 METAR KMDT 241356Z 20013G22KT 10SM SCT025 BKN031 17/13 A2962 =
2014-11-24 07:56 METAR KMDT 241256Z 19011G18KT 10SM BKN025 BKN030 17/14 A2961 =
2014-11-24 06:56 METAR KMDT 241156Z VRB06KT 10SM FEW020 BKN024 OVC032 17/14 A2961 RMK AO2 SLP028
                 60031 70054 T01720144 10172 20094 53001 =
2014-11-24 05:56 METAR KMDT 241056Z 16011KT 10SM FEW018 BKN024 BKN030 15/14 A2959 =
2014-11-24 04:56 METAR KMDT 240956Z 16010KT 10SM BKN016 BKN021 16/14 A2960 =
2014-11-24 04:42 METAR KMDT 240942Z 17011KT 10SM BKN016 BKN021 OVC031 16/14 A2960 RMK AO2
                 RAB0859E29 P0002 T01560139 =
2014-11-24 03:56 METAR KMDT 240856Z 16008KT 10SM OVC012 15/13 A2961 =
2014-11-24 02:56 METAR KMDT 240756Z 15012KT 7SM -RA BKN014 OVC021 13/12 A2963 =
2014-11-24 02:32 METAR KMDT 240732Z 14010KT 4SM -RA BR SCT010 OVC016 12/12 A2962 RMK AO2 P0007
                 T01220117 =
2014-11-24 01:56 METAR KMDT 240656Z 12013KT 3SM RA BR OVC006 11/11 A2964 =
2014-11-24 01:39 METAR KMDT 240639Z 12013KT 3SM RA BR OVC006 11/11 A2967 RMK AO2 P0015 T01110106
                 =
2014-11-24 00:56 METAR KMDT 240556Z 11008KT 2 1/2SM RA BR OVC006 09/09 A2974 =
2014-11-23 23:56 METAR KMDT 240456Z 00000KT 4SM RA BR OVC008 08/07 A2983 =
2014-11-23 23:12 METAR KMDT 240412Z 12005KT 8SM -RA BKN012 BKN030 OVC040 08/07 A2988 RMK AO2
                 P0000 T00830067 =
2014-11-23 22:56 METAR KMDT 240356Z 11008KT 6SM -RA BR BKN015 OVC021 08/06 A2989 RMK AO2 RAB15
                 SLP125 P0003 T00780061 =
2014-11-23 22:31 METAR KMDT 240331Z 13008KT 10SM -RA BKN025 OVC042 08/04 A2991 RMK AO2 RAB15
                 P0000 T00830044 =
2014-11-23 21:56 METAR KMDT 240256Z 13007KT 10SM SCT040 BKN046 OVC055 08/02 A2993 =
2014-11-23 20:56 METAR KMDT 240156Z 12006KT 10SM BKN033 BKN048 OVC200 08/M01 A2997 RMK AO2 SLP152
                 T00831006 =
2014-11-23 19:56 METAR KMDT 240056Z COR 11005KT 10SM BKN046 OVC220 07/M02 A3002 RMK AO2 SLP167
                 T00721017 =
2014-11-23 18:56 METAR KMDT 232356Z 11006KT 10SM SCT150 OVC250 07/M03 A3003 =
2014-11-23 17:56 METAR KMDT 232256Z 14005KT 10SM SCT170 OVC250 07/M02 A3006 =
2014-11-23 16:56 METAR KMDT 232156Z 12008KT 10SM BKN170 OVC250 09/M03 A3006 RMK AO2 SLP181
                 T00891033 =
2014-11-23 15:56 METAR KMDT 232056Z 13009KT 10SM SCT150 OVC250 10/M03 A3007 RMK AO2 SLP185
                 T01001028 56016 =
2014-11-23 14:56 METAR KMDT 231956Z 14005KT 10SM FEW080 SCT180 BKN250 12/M03 A3007 =
2014-11-23 13:56 METAR KMDT 231856Z 13007KT 10SM FEW080 SCT180 BKN250 12/M03 A3009 RMK AO2 SLP192
                 T01221028 =
2014-11-23 12:56 METAR KMDT 231756Z 13004KT 10SM FEW080 BKN250 11/M04 A3011 =
2014-11-23 11:56 METAR KMDT 231656Z 11004KT 10SM FEW100 BKN250 09/M05 A3014 =
2014-11-23 10:56 METAR KMDT 231556Z 17003KT 10SM FEW110 BKN250 07/M04 A3018 RMK AO2 SLP222
                 T00721044 =
2014-11-23 09:56 METAR KMDT 231456Z 00000KT 9SM FEW080 FEW110 BKN250 05/M04 A3021 RMK AO2 SLP233
                 T00501039 50002 =

Support USWX by starting your Amazon purchase here.